createdAt,value
2023-08-17T00:00:15.856Z,65.28
2023-08-17T00:02:42.954Z,65.41
2023-08-17T00:05:13.124Z,65.56
2023-08-17T00:07:41.904Z,65.57
2023-08-17T00:10:08.806Z,65.75
2023-08-17T00:12:40.208Z,65.71
2023-08-17T00:15:07.390Z,65.50
2023-08-17T00:17:36.626Z,65.69
2023-08-17T00:20:06.304Z,65.82
2023-08-17T00:22:33.121Z,66.17
2023-08-17T00:24:59.736Z,66.14
2023-08-17T00:27:26.889Z,66.03
2023-08-17T00:29:55.818Z,66.16
2023-08-17T00:32:22.468Z,65.92
2023-08-17T00:34:51.117Z,66.09
2023-08-17T00:37:17.676Z,65.74
2023-08-17T00:39:44.311Z,66.35
2023-08-17T00:42:13.189Z,66.17
2023-08-17T00:44:40.196Z,65.95
2023-08-17T00:47:06.853Z,65.66
2023-08-17T00:49:34.635Z,65.54
2023-08-17T00:52:06.359Z,65.18
2023-08-17T00:54:33.358Z,64.86
2023-08-17T00:57:03.923Z,64.79
2023-08-17T00:59:36.766Z,64.06
2023-08-17T01:02:04.314Z,63.86
2023-08-17T01:04:31.721Z,64.82
2023-08-17T01:07:00.695Z,65.45
2023-08-17T01:09:27.530Z,66.07
2023-08-17T01:12:06.444Z,65.48
2023-08-17T01:14:53.515Z,65.99
2023-08-17T01:17:29.083Z,65.63
2023-08-17T01:19:57.242Z,65.68
2023-08-17T01:22:29.679Z,65.74
2023-08-17T01:24:59.663Z,65.85
2023-08-17T01:27:26.998Z,66.02
2023-08-17T01:29:57.318Z,66.30
2023-08-17T01:32:48.606Z,66.73
2023-08-17T01:35:27.537Z,66.99
2023-08-17T01:37:56.898Z,67.06
2023-08-17T01:40:24.188Z,67.12
2023-08-17T01:42:58.006Z,66.92
2023-08-17T01:45:26.052Z,66.30
2023-08-17T01:47:56.758Z,65.99
2023-08-17T01:50:23.540Z,66.20
2023-08-17T01:52:54.828Z,66.08
2023-08-17T01:55:22.694Z,65.73
2023-08-17T01:57:51.574Z,66.16
2023-08-17T02:00:18.168Z,66.23
2023-08-17T02:02:45.123Z,66.83
2023-08-17T02:05:15.430Z,67.22
2023-08-17T02:07:47.185Z,66.91
2023-08-17T02:10:15.733Z,67.31
2023-08-17T02:12:42.361Z,67.63
2023-08-17T02:15:11.453Z,67.50
2023-08-17T02:17:40.343Z,67.87
2023-08-17T02:20:10.723Z,68.25
2023-08-17T02:22:42.153Z,67.53
2023-08-17T02:25:09.792Z,67.39
2023-08-17T02:27:36.678Z,67.64
2023-08-17T02:30:04.597Z,67.52
2023-08-17T02:32:33.784Z,67.34
2023-08-17T02:35:00.766Z,67.43
2023-08-17T02:37:27.789Z,67.58
2023-08-17T02:39:57.349Z,67.56
2023-08-17T02:42:24.073Z,68.19
2023-08-17T02:44:53.125Z,68.41
2023-08-17T02:47:22.391Z,68.52
2023-08-17T02:49:51.591Z,68.25
2023-08-17T02:52:20.606Z,68.68
2023-08-17T02:54:49.762Z,68.91
2023-08-17T02:57:19.607Z,69.15
2023-08-17T02:59:46.190Z,69.44
2023-08-17T03:02:14.932Z,69.23
2023-08-17T03:04:42.249Z,69.31
2023-08-17T03:07:09.759Z,69.18
2023-08-17T03:09:38.708Z,68.53
2023-08-17T03:12:10.063Z,69.23
2023-08-17T03:14:39.119Z,69.08
2023-08-17T03:17:05.884Z,69.05
2023-08-17T03:19:32.783Z,68.96
2023-08-17T03:22:04.457Z,68.46
2023-08-17T03:24:34.019Z,68.76
2023-08-17T03:27:00.936Z,68.65
2023-08-17T03:29:32.374Z,68.97
2023-08-17T03:31:58.924Z,69.20
2023-08-17T03:34:26.006Z,68.93
2023-08-17T03:36:53.574Z,68.71
2023-08-17T03:39:20.577Z,68.56
2023-08-17T03:41:49.964Z,68.43
2023-08-17T03:44:17.228Z,68.35
2023-08-17T03:46:48.715Z,68.33
2023-08-17T03:49:18.230Z,68.23
2023-08-17T03:51:49.641Z,68.27
2023-08-17T03:54:18.971Z,68.59
2023-08-17T03:56:45.695Z,68.45
2023-08-17T03:59:12.316Z,68.93
2023-08-17T04:01:38.893Z,69.04
2023-08-17T04:04:05.888Z,68.60
2023-08-17T04:06:32.595Z,68.40
2023-08-17T04:08:59.192Z,68.76
2023-08-17T04:11:26.637Z,68.72
2023-08-17T04:13:58.340Z,68.47
2023-08-17T04:16:25.669Z,68.91
2023-08-17T04:18:52.682Z,68.22
2023-08-17T04:21:19.236Z,67.89
2023-08-17T04:23:48.031Z,68.61
2023-08-17T04:26:14.744Z,68.33
2023-08-17T04:28:43.988Z,68.40
2023-08-17T04:31:13.974Z,68.75
2023-08-17T04:33:43.510Z,68.54
2023-08-17T04:36:12.753Z,68.62
2023-08-17T04:38:39.435Z,68.42
2023-08-17T04:41:08.519Z,68.28
2023-08-17T04:43:39.805Z,68.67
2023-08-17T04:46:06.433Z,68.64
2023-08-17T04:48:39.384Z,68.23
2023-08-17T04:51:08.750Z,68.29
2023-08-17T04:53:35.674Z,68.01
2023-08-17T04:56:04.566Z,68.00
2023-08-17T04:58:31.236Z,68.19
2023-08-17T05:00:58.048Z,68.05
2023-08-17T05:05:58.522Z,67.91
2023-08-17T05:08:25.524Z,68.33
2023-08-17T05:10:54.814Z,68.46
2023-08-17T05:13:21.444Z,68.36
2023-08-17T05:15:48.061Z,68.40
2023-08-17T05:18:15.940Z,68.13
2023-08-17T05:20:42.638Z,67.91
2023-08-17T05:23:09.585Z,67.07
2023-08-17T05:25:36.277Z,67.78
2023-08-17T05:28:08.193Z,67.40
2023-08-17T05:30:35.078Z,67.49
2023-08-17T05:33:01.894Z,67.33
2023-08-17T05:35:31.134Z,67.11
2023-08-17T05:37:57.856Z,67.22
2023-08-17T05:40:26.746Z,67.09
2023-08-17T05:42:55.582Z,66.90
2023-08-17T05:45:24.626Z,66.63
2023-08-17T05:47:54.216Z,66.84
2023-08-17T05:50:25.937Z,66.68
2023-08-17T05:52:53.693Z,66.17
2023-08-17T05:55:24.988Z,67.29
2023-08-17T05:57:51.591Z,66.21
2023-08-17T06:00:20.614Z,65.39
2023-08-17T06:02:52.623Z,65.49
2023-08-17T06:05:28.769Z,65.07
2023-08-17T06:07:58.888Z,64.57
2023-08-17T06:10:28.875Z,64.26
2023-08-17T06:12:58.812Z,64.34
2023-08-17T06:15:25.677Z,64.57
2023-08-17T06:17:52.696Z,64.40
2023-08-17T06:20:27.172Z,64.47
2023-08-17T06:22:56.750Z,63.82
2023-08-17T06:25:24.284Z,63.79
2023-08-17T06:27:51.220Z,63.26
2023-08-17T06:30:18.236Z,63.08
2023-08-17T06:32:45.366Z,63.31
2023-08-17T06:35:14.473Z,63.40
2023-08-17T06:37:43.662Z,63.22
2023-08-17T06:40:15.167Z,62.43
2023-08-17T06:42:41.727Z,62.08
2023-08-17T06:45:08.822Z,62.06
2023-08-17T06:47:35.588Z,62.51
2023-08-17T06:50:04.675Z,61.66
2023-08-17T06:52:36.269Z,61.60
2023-08-17T06:55:03.464Z,61.33
2023-08-17T06:57:32.648Z,60.88
2023-08-17T07:00:01.129Z,59.73
2023-08-17T07:02:46.495Z,59.72
2023-08-17T07:05:16.491Z,59.71
2023-08-17T07:07:45.616Z,60.25
2023-08-17T07:10:12.558Z,59.51
2023-08-17T07:12:40.975Z,57.87
2023-08-17T07:15:13.594Z,57.24
2023-08-17T07:17:40.188Z,56.65
2023-08-17T07:22:43.130Z,57.08
2023-08-17T07:25:14.858Z,57.85
2023-08-17T07:27:45.727Z,57.43
2023-08-17T07:30:12.890Z,56.99
2023-08-17T07:32:39.487Z,57.50
2023-08-17T07:35:08.926Z,57.00
2023-08-17T07:37:37.245Z,57.32
2023-08-17T07:40:06.730Z,57.30
2023-08-17T07:42:35.693Z,56.38
2023-08-17T07:45:07.580Z,56.84
2023-08-17T07:47:40.190Z,56.70
2023-08-17T07:50:12.705Z,57.23
2023-08-17T07:52:39.325Z,57.50
2023-08-17T07:55:06.536Z,57.94
2023-08-17T07:57:33.248Z,55.26
2023-08-17T08:00:02.323Z,54.29
2023-08-17T08:02:29.283Z,54.69
2023-08-17T08:04:55.983Z,55.83
2023-08-17T08:07:25.521Z,56.20
2023-08-17T08:09:52.356Z,54.87
2023-08-17T08:12:18.941Z,55.34
2023-08-17T08:14:45.875Z,54.48
2023-08-17T08:17:14.878Z,52.83
2023-08-17T08:19:46.415Z,51.76
2023-08-17T08:22:12.960Z,51.72
2023-08-17T08:27:13.236Z,51.25
2023-08-17T08:29:40.968Z,52.15
2023-08-17T08:32:10.157Z,52.04
2023-08-17T08:34:39.236Z,52.31
2023-08-17T08:37:10.635Z,52.71
2023-08-17T08:39:56.189Z,52.51
2023-08-17T08:42:24.202Z,52.28
2023-08-17T08:44:53.766Z,52.48
2023-08-17T08:47:21.222Z,51.95
2023-08-17T08:50:02.557Z,52.44
2023-08-17T08:53:01.234Z,51.53
2023-08-17T08:55:36.975Z,51.39
2023-08-17T08:58:06.386Z,50.25
2023-08-17T09:00:36.760Z,50.82
2023-08-17T09:03:05.652Z,50.41
2023-08-17T09:05:36.197Z,50.22
2023-08-17T09:08:03.745Z,50.58
2023-08-17T09:10:32.021Z,50.40
2023-08-17T09:13:09.785Z,50.21
2023-08-17T09:15:38.822Z,49.72
2023-08-17T09:18:13.614Z,49.98
2023-08-17T09:23:16.394Z,50.02
2023-08-17T09:25:45.681Z,49.88
2023-08-17T09:28:17.262Z,49.40
2023-08-17T09:30:56.565Z,49.85
2023-08-17T09:33:27.480Z,48.97
2023-08-17T09:35:58.418Z,49.90
2023-08-17T09:38:25.862Z,49.72
2023-08-17T09:40:52.911Z,49.32
2023-08-17T09:43:20.076Z,49.54
2023-08-17T09:45:52.198Z,49.97
2023-08-17T09:48:21.514Z,49.74
2023-08-17T09:50:49.498Z,49.03
2023-08-17T09:53:17.192Z,49.59
2023-08-17T09:55:46.585Z,49.68
2023-08-17T09:58:16.423Z,49.48
2023-08-17T10:00:52.632Z,49.67
2023-08-17T10:03:20.267Z,50.24
2023-08-17T10:05:52.146Z,50.34
2023-08-17T10:08:23.237Z,50.46
2023-08-17T10:10:56.625Z,49.87
2023-08-17T10:13:34.869Z,49.98
2023-08-17T10:16:10.287Z,49.53
2023-08-17T10:18:36.776Z,49.03
2023-08-17T10:21:06.309Z,49.44
2023-08-17T10:23:36.285Z,49.57
2023-08-17T10:26:04.151Z,49.50
2023-08-17T10:28:32.117Z,49.63
2023-08-17T10:30:59.132Z,48.79
2023-08-17T10:33:31.102Z,48.59
2023-08-17T10:36:00.603Z,49.29
2023-08-17T10:38:27.223Z,48.72
2023-08-17T10:41:19.557Z,48.90
2023-08-17T10:43:56.690Z,49.22
2023-08-17T10:46:32.968Z,48.64
2023-08-17T10:49:02.364Z,48.28
2023-08-17T10:51:29.055Z,47.44
2023-08-17T10:53:59.729Z,47.02
2023-08-17T10:56:28.472Z,47.11
2023-08-17T10:58:57.408Z,47.06
2023-08-17T11:01:38.919Z,45.78
2023-08-17T11:04:18.523Z,45.99
2023-08-17T11:06:46.077Z,44.92
2023-08-17T11:09:13.411Z,44.78
2023-08-17T11:11:42.507Z,45.17
2023-08-17T11:14:09.865Z,44.75
2023-08-17T11:16:39.022Z,43.92
2023-08-17T11:19:13.470Z,43.46
2023-08-17T11:21:42.804Z,43.19
2023-08-17T11:24:10.878Z,42.81
2023-08-17T11:26:37.580Z,42.60
2023-08-17T11:29:06.772Z,42.74
2023-08-17T11:31:33.726Z,42.01
2023-08-17T11:34:02.710Z,42.55
2023-08-17T11:36:29.643Z,43.05
2023-08-17T11:38:56.469Z,42.39
2023-08-17T11:41:26.232Z,42.18
2023-08-17T11:43:53.156Z,42.37
2023-08-17T11:46:19.963Z,41.04
2023-08-17T11:48:46.662Z,40.02
2023-08-17T11:51:15.828Z,39.51
2023-08-17T11:53:49.313Z,38.50
2023-08-17T11:56:16.279Z,38.23
2023-08-17T11:58:51.698Z,37.94
2023-08-17T12:01:18.528Z,38.15
2023-08-17T12:03:47.601Z,38.37
2023-08-17T12:06:15.109Z,37.81
2023-08-17T12:08:47.409Z,38.09
2023-08-17T12:11:14.576Z,38.99
2023-08-17T12:13:41.109Z,37.81
2023-08-17T12:16:15.762Z,38.68
2023-08-17T12:18:51.271Z,38.97
2023-08-17T12:21:17.963Z,39.33
2023-08-17T12:23:47.116Z,38.76
2023-08-17T12:26:21.603Z,38.88
2023-08-17T12:28:50.752Z,38.64
2023-08-17T12:31:25.431Z,38.92
2023-08-17T12:33:54.478Z,40.58
2023-08-17T12:36:22.631Z,38.97
2023-08-17T12:38:51.967Z,39.31
2023-08-17T12:41:19.143Z,39.08
2023-08-17T12:43:48.032Z,39.72
2023-08-17T12:46:17.090Z,40.71
2023-08-17T12:48:43.625Z,39.88
2023-08-17T12:51:12.436Z,40.36
2023-08-17T12:53:41.323Z,39.88
2023-08-17T12:56:07.964Z,40.00
2023-08-17T12:58:37.134Z,39.57
2023-08-17T13:01:04.668Z,39.97
2023-08-17T13:03:31.364Z,39.92
2023-08-17T13:05:57.927Z,41.04
2023-08-17T13:08:24.611Z,41.28
2023-08-17T13:10:53.561Z,41.61
2023-08-17T13:13:20.073Z,42.46
2023-08-17T13:15:49.351Z,43.39
2023-08-17T13:18:18.314Z,44.46
2023-08-17T13:20:44.983Z,45.71
2023-08-17T13:23:14.433Z,46.28
2023-08-17T13:25:41.043Z,46.92
2023-08-17T13:28:07.650Z,46.73
2023-08-17T13:30:36.582Z,46.54
2023-08-17T13:33:03.433Z,46.97
2023-08-17T13:35:32.302Z,47.07
2023-08-17T13:37:58.899Z,45.79
2023-08-17T13:40:25.892Z,44.59
2023-08-17T13:42:52.991Z,43.38
2023-08-17T13:45:19.751Z,42.89
2023-08-17T13:47:48.817Z,42.50
2023-08-17T13:50:15.360Z,41.77
2023-08-17T13:52:41.917Z,41.92
2023-08-17T13:55:09.086Z,42.00
2023-08-17T13:57:38.047Z,41.23
2023-08-17T14:00:05.699Z,41.39
2023-08-17T14:02:33.115Z,41.90
2023-08-17T14:05:00.060Z,42.53
2023-08-17T14:07:31.464Z,43.17
2023-08-17T14:10:09.106Z,43.90
2023-08-17T14:12:41.279Z,45.00
2023-08-17T14:15:12.613Z,45.44
2023-08-17T14:17:44.112Z,45.43
2023-08-17T14:20:14.171Z,45.90
2023-08-17T14:22:44.549Z,46.13
2023-08-17T14:25:11.238Z,46.53
2023-08-17T14:27:37.861Z,46.66
2023-08-17T14:30:05.069Z,47.11
2023-08-17T14:32:35.557Z,47.38
2023-08-17T14:35:04.942Z,47.47
2023-08-17T14:37:31.861Z,47.45
2023-08-17T14:39:58.656Z,47.25
2023-08-17T14:42:27.031Z,47.49
2023-08-17T14:44:56.175Z,47.74
2023-08-17T14:47:23.133Z,46.95
2023-08-17T14:49:49.675Z,47.29
2023-08-17T14:52:18.749Z,47.89
2023-08-17T14:54:45.316Z,47.41
2023-08-17T14:57:11.823Z,47.64
2023-08-17T14:59:40.696Z,46.96
2023-08-17T15:02:07.393Z,47.46
2023-08-17T15:04:34.253Z,47.55
2023-08-17T15:07:01.054Z,47.33
2023-08-17T15:09:27.680Z,46.85
2023-08-17T15:11:54.107Z,46.71
2023-08-17T15:14:25.613Z,46.52
2023-08-17T15:16:57.041Z,46.62
2023-08-17T15:19:39.223Z,46.48
2023-08-17T15:22:07.320Z,46.90
2023-08-17T15:24:39.081Z,47.04
2023-08-17T15:27:05.757Z,47.01
2023-08-17T15:29:34.765Z,47.33
2023-08-17T15:32:01.269Z,47.09
2023-08-17T15:34:31.553Z,47.36
2023-08-17T15:36:58.251Z,47.44
2023-08-17T15:39:25.183Z,47.86
2023-08-17T15:41:51.933Z,48.19
2023-08-17T15:44:23.171Z,48.24
2023-08-17T15:46:49.962Z,48.34
2023-08-17T15:49:18.946Z,47.65
2023-08-17T15:51:45.484Z,47.03
2023-08-17T15:54:12.626Z,46.65
2023-08-17T15:56:41.042Z,46.31
2023-08-17T15:59:10.265Z,46.41
2023-08-17T16:01:39.182Z,46.24
2023-08-17T16:04:05.760Z,46.06
2023-08-17T16:06:34.886Z,46.22
2023-08-17T16:09:01.516Z,46.60
2023-08-17T16:11:28.283Z,46.02
2023-08-17T16:13:57.852Z,46.04
2023-08-17T16:16:27.157Z,46.66
2023-08-17T16:18:53.897Z,45.63
2023-08-17T16:21:20.377Z,44.96
2023-08-17T16:23:46.883Z,45.05
2023-08-17T16:26:13.478Z,44.36
2023-08-17T16:28:52.814Z,45.40
2023-08-17T16:31:34.037Z,46.40
2023-08-17T16:34:00.748Z,44.26
2023-08-17T16:36:29.624Z,44.74
2023-08-17T16:38:56.126Z,44.45
2023-08-17T16:41:22.751Z,44.04
2023-08-17T16:43:51.989Z,43.85
2023-08-17T16:46:23.459Z,44.59
2023-08-17T16:49:51.531Z,43.61
2023-08-17T16:52:18.232Z,42.90
2023-08-17T16:54:47.394Z,44.23
2023-08-17T16:57:17.515Z,43.92
2023-08-17T16:59:46.526Z,43.92
2023-08-17T17:02:14.873Z,43.24
2023-08-17T17:04:44.390Z,42.85
2023-08-17T17:07:12.345Z,42.63
2023-08-17T17:09:39.021Z,43.03
2023-08-17T17:12:06.207Z,40.81
2023-08-17T17:14:36.341Z,39.53
2023-08-17T17:17:03.172Z,37.88
2023-08-17T17:19:29.864Z,36.71
2023-08-17T17:21:56.477Z,36.53
2023-08-17T17:24:23.181Z,37.10
2023-08-17T17:26:52.420Z,38.25
2023-08-17T17:29:19.171Z,37.52
2023-08-17T17:31:45.825Z,38.07
2023-08-17T17:34:14.489Z,38.94
2023-08-17T17:36:43.474Z,39.85
2023-08-17T17:39:16.591Z,40.03
2023-08-17T17:41:43.295Z,39.92
2023-08-17T17:44:12.724Z,40.70
2023-08-17T17:46:41.875Z,42.14
2023-08-17T17:49:08.563Z,43.51
2023-08-17T17:51:35.286Z,42.27
2023-08-17T17:54:01.985Z,43.08
2023-08-17T17:56:42.788Z,42.87
2023-08-17T17:59:15.228Z,43.81
2023-08-17T18:01:41.940Z,45.00
2023-08-17T18:04:08.704Z,44.50
2023-08-17T18:06:37.899Z,43.70
2023-08-17T18:09:07.175Z,42.93
2023-08-17T18:11:37.873Z,42.99
2023-08-17T18:14:09.238Z,43.10
2023-08-17T18:16:35.876Z,44.04
2023-08-17T18:19:02.467Z,44.56
2023-08-17T18:21:32.005Z,44.78
2023-08-17T18:23:59.561Z,44.88
2023-08-17T18:26:26.199Z,44.77
2023-08-17T18:28:56.710Z,44.85
2023-08-17T18:31:23.612Z,44.61
2023-08-17T18:33:55.396Z,45.17
2023-08-17T18:36:24.402Z,45.83
2023-08-17T18:38:51.045Z,46.47
2023-08-17T18:41:17.928Z,46.15
2023-08-17T18:43:44.429Z,47.00
2023-08-17T18:46:11.174Z,47.98
2023-08-17T18:48:37.991Z,48.75
2023-08-17T18:51:04.572Z,48.86
2023-08-17T18:53:33.355Z,50.23
2023-08-17T18:56:00.079Z,51.27
2023-08-17T18:58:29.256Z,51.86
2023-08-17T19:00:55.998Z,52.05
2023-08-17T19:03:27.316Z,52.65
2023-08-17T19:05:54.350Z,52.33
2023-08-17T19:08:23.910Z,53.22
2023-08-17T19:10:55.349Z,54.62
2023-08-17T19:13:23.601Z,55.56
2023-08-17T19:15:50.369Z,56.03
2023-08-17T19:18:26.799Z,55.90
2023-08-17T19:20:55.881Z,55.63
2023-08-17T19:23:27.427Z,55.66
2023-08-17T19:25:54.041Z,55.87
2023-08-17T19:28:23.301Z,55.71
2023-08-17T19:30:49.983Z,55.69
2023-08-17T19:33:18.094Z,55.14
2023-08-17T19:35:47.149Z,56.02
2023-08-17T19:38:14.097Z,55.72
2023-08-17T19:40:45.907Z,55.80
2023-08-17T19:43:14.830Z,56.02
2023-08-17T19:45:42.620Z,56.42
2023-08-17T19:48:11.916Z,56.84
2023-08-17T19:50:41.641Z,57.07
2023-08-17T19:53:08.298Z,57.09
2023-08-17T19:55:34.942Z,57.15
2023-08-17T19:58:01.579Z,56.96
2023-08-17T20:00:30.623Z,56.84
2023-08-17T20:02:59.590Z,57.15
2023-08-17T20:05:26.305Z,56.96
2023-08-17T20:07:53.105Z,57.37
2023-08-17T20:10:20.003Z,57.38
2023-08-17T20:12:46.680Z,58.03
2023-08-17T20:15:15.868Z,57.69
2023-08-17T20:17:44.946Z,57.89
2023-08-17T20:20:17.129Z,58.02
2023-08-17T20:22:48.778Z,57.63
2023-08-17T20:25:15.332Z,58.20
2023-08-17T20:27:43.713Z,58.33
2023-08-17T20:30:13.159Z,58.03
2023-08-17T20:32:39.776Z,57.97
2023-08-17T20:35:06.774Z,57.91
2023-08-17T20:37:33.341Z,58.39
2023-08-17T20:40:02.196Z,58.65
2023-08-17T20:42:31.085Z,59.55
2023-08-17T20:44:58.072Z,59.68
2023-08-17T20:47:24.701Z,60.01
2023-08-17T20:49:51.274Z,60.47
2023-08-17T20:52:20.144Z,60.56
2023-08-17T20:54:51.584Z,60.81
2023-08-17T20:57:20.592Z,61.10
2023-08-17T20:59:49.730Z,60.66
2023-08-17T21:02:16.442Z,60.50
2023-08-17T21:04:43.003Z,60.65
2023-08-17T21:07:09.943Z,60.72
2023-08-17T21:09:36.739Z,60.66
2023-08-17T21:12:03.809Z,61.06
2023-08-17T21:14:30.590Z,60.94
2023-08-17T21:16:59.529Z,60.60
2023-08-17T21:19:28.632Z,60.98
2023-08-17T21:21:57.514Z,61.28
2023-08-17T21:24:26.965Z,61.38
2023-08-17T21:26:53.596Z,61.19
2023-08-17T21:29:20.183Z,61.18
2023-08-17T21:31:47.920Z,61.32
2023-08-17T21:34:16.738Z,61.76
2023-08-17T21:36:45.724Z,62.18
2023-08-17T21:39:14.210Z,62.47
2023-08-17T21:41:43.416Z,63.26
2023-08-17T21:44:14.831Z,62.80
2023-08-17T21:46:46.993Z,62.92
2023-08-17T21:49:13.602Z,63.05
2023-08-17T21:51:40.291Z,62.84
2023-08-17T21:54:09.281Z,63.58
2023-08-17T21:56:38.091Z,63.17
2023-08-17T21:59:05.134Z,63.19
2023-08-17T22:01:33.927Z,63.37
2023-08-17T22:04:02.910Z,63.12
2023-08-17T22:06:29.831Z,63.52
2023-08-17T22:08:58.763Z,63.52
2023-08-17T22:11:27.567Z,63.70
2023-08-17T22:13:54.266Z,64.19
2023-08-17T22:16:21.083Z,64.07
2023-08-17T22:18:47.847Z,64.11
2023-08-17T22:21:20.212Z,64.42
2023-08-17T22:23:46.825Z,64.32
2023-08-17T22:26:13.384Z,64.87
2023-08-17T22:28:42.049Z,65.00
2023-08-17T22:31:09.428Z,65.18
2023-08-17T22:33:38.739Z,64.98
2023-08-17T22:36:05.653Z,64.96
2023-08-17T22:38:34.700Z,64.76
2023-08-17T22:41:03.756Z,64.71
2023-08-17T22:43:35.110Z,64.81
2023-08-17T22:46:05.982Z,64.92
2023-08-17T22:48:34.984Z,65.20
2023-08-17T22:51:04.202Z,64.91
2023-08-17T22:53:33.184Z,64.75
2023-08-17T22:55:59.750Z,64.55
2023-08-17T22:58:26.476Z,64.46
2023-08-17T23:00:55.129Z,65.03
2023-08-17T23:03:26.619Z,64.70
2023-08-17T23:05:53.577Z,64.75
2023-08-17T23:08:20.276Z,64.83
2023-08-17T23:10:47.306Z,65.30
2023-08-17T23:13:18.862Z,65.21
2023-08-17T23:15:46.402Z,65.16
2023-08-17T23:18:15.637Z,65.46
2023-08-17T23:20:45.401Z,65.22
2023-08-17T23:23:12.067Z,65.29
2023-08-17T23:25:38.767Z,65.85
2023-08-17T23:28:06.361Z,65.84
2023-08-17T23:30:33.187Z,65.92
2023-08-17T23:32:59.900Z,66.11
2023-08-17T23:35:26.639Z,66.52
2023-08-17T23:37:55.823Z,66.70
2023-08-17T23:40:27.071Z,66.63
2023-08-17T23:42:58.460Z,66.91
2023-08-17T23:45:25.200Z,66.62
2023-08-17T23:47:56.739Z,67.37
2023-08-17T23:50:24.622Z,67.07
2023-08-17T23:52:51.555Z,66.97
2023-08-17T23:55:18.277Z,66.63
2023-08-17T23:57:47.662Z,66.58
